createdAt,value
2023-05-24T00:01:50.496Z,15.10
2023-05-24T00:04:18.175Z,15.10
2023-05-24T00:06:44.528Z,15.00
2023-05-24T00:09:12.134Z,15.00
2023-05-24T00:11:38.324Z,14.90
2023-05-24T00:14:04.588Z,14.70
2023-05-24T00:16:30.894Z,14.60
2023-05-24T00:18:58.486Z,14.60
2023-05-24T00:21:25.481Z,14.40
2023-05-24T00:23:51.667Z,14.30
2023-05-24T00:26:17.906Z,14.20
2023-05-24T00:28:44.138Z,14.10
2023-05-24T00:31:10.592Z,14.10
2023-05-24T00:33:36.803Z,14.10
2023-05-24T00:36:03.659Z,14.00
2023-05-24T00:38:29.941Z,14.00
2023-05-24T00:40:56.707Z,14.00
2023-05-24T00:43:23.547Z,13.90
2023-05-24T00:46:41.058Z,13.80
2023-05-24T00:49:07.346Z,13.70
2023-05-24T00:51:33.738Z,13.70
2023-05-24T00:54:00.051Z,13.60
2023-05-24T00:56:27.145Z,13.60
2023-05-24T00:58:56.344Z,13.60
2023-05-24T01:01:25.815Z,13.60
2023-05-24T01:03:53.760Z,13.60
2023-05-24T01:06:24.160Z,13.50
2023-05-24T01:09:15.883Z,13.50
2023-05-24T01:12:24.035Z,13.40
2023-05-24T01:18:07.548Z,13.30
2023-05-24T01:20:34.113Z,13.30
2023-05-24T01:29:52.684Z,13.30
2023-05-24T01:32:19.185Z,13.00
2023-05-24T01:34:45.414Z,12.90
2023-05-24T01:37:11.639Z,12.80
2023-05-24T01:39:38.448Z,12.80
2023-05-24T01:42:27.061Z,12.70
2023-05-24T01:48:19.564Z,12.70
2023-05-24T01:50:53.291Z,12.60
2023-05-24T01:53:20.149Z,12.50
2023-05-24T01:55:48.295Z,12.50
2023-05-24T01:58:14.504Z,12.40
2023-05-24T02:00:40.930Z,12.30
2023-05-24T02:03:07.593Z,12.30
2023-05-24T02:05:34.045Z,12.30
2023-05-24T02:08:00.228Z,12.20
2023-05-24T02:10:26.569Z,12.20
2023-05-24T02:12:52.783Z,12.10
2023-05-24T02:15:20.026Z,13.60
2023-05-24T02:17:47.686Z,12.00
2023-05-24T02:20:13.944Z,11.80
2023-05-24T02:22:40.909Z,11.70
2023-05-24T02:25:08.235Z,11.70
2023-05-24T02:27:34.488Z,11.50
2023-05-24T02:30:01.049Z,11.40
2023-05-24T02:32:27.204Z,11.30
2023-05-24T02:34:53.481Z,11.20
2023-05-24T02:37:20.204Z,11.20
2023-05-24T02:39:46.369Z,11.10
2023-05-24T02:42:12.669Z,11.00
2023-05-24T02:44:38.853Z,11.00
2023-05-24T02:47:05.513Z,10.90
2023-05-24T02:49:31.693Z,10.90
2023-05-24T02:51:58.301Z,10.90
2023-05-24T02:54:24.915Z,10.80
2023-05-24T02:56:51.195Z,10.80
2023-05-24T02:59:17.377Z,10.80
2023-05-24T03:01:44.083Z,10.70
2023-05-24T03:04:10.347Z,12.60
2023-05-24T03:06:37.355Z,10.70
2023-05-24T03:09:03.682Z,10.70
2023-05-24T03:11:29.905Z,10.70
2023-05-24T03:13:56.153Z,10.60
2023-05-24T03:16:22.408Z,10.70
2023-05-24T03:18:53.433Z,10.60
2023-05-24T03:21:20.106Z,10.50
2023-05-24T03:23:46.258Z,10.50
2023-05-24T03:26:15.905Z,10.60
2023-05-24T03:28:42.055Z,10.50
2023-05-24T03:31:08.216Z,10.50
2023-05-24T03:33:34.402Z,10.50
2023-05-24T03:36:02.080Z,10.40
2023-05-24T03:38:28.368Z,10.50
2023-05-24T03:40:54.641Z,10.50
2023-05-24T03:43:21.667Z,10.50
2023-05-24T03:45:47.968Z,10.50
2023-05-24T03:48:14.514Z,10.50
2023-05-24T03:50:41.026Z,10.40
2023-05-24T03:53:07.593Z,10.40
2023-05-24T03:55:33.780Z,10.50
2023-05-24T03:58:00.788Z,10.50
2023-05-24T04:00:26.974Z,10.50
2023-05-24T04:02:53.398Z,10.50
2023-05-24T04:05:19.782Z,10.50
2023-05-24T04:07:46.007Z,10.40
2023-05-24T04:10:12.318Z,10.40
2023-05-24T04:12:40.094Z,10.40
2023-05-24T04:15:07.838Z,10.40
2023-05-24T04:17:34.576Z,10.40
2023-05-24T04:20:01.696Z,10.40
2023-05-24T04:22:29.335Z,10.40
2023-05-24T04:24:55.590Z,10.40
2023-05-24T04:27:21.802Z,10.40
2023-05-24T04:29:52.807Z,10.40
2023-05-24T04:32:19.174Z,10.40
2023-05-24T04:34:45.752Z,10.50
2023-05-24T04:37:13.370Z,10.40
2023-05-24T04:39:40.199Z,10.40
2023-05-24T04:42:07.186Z,10.40
2023-05-24T04:44:34.069Z,10.50
2023-05-24T04:47:02.247Z,10.60
2023-05-24T04:49:28.935Z,10.60
2023-05-24T04:51:56.173Z,10.60
2023-05-24T04:54:22.892Z,10.70
2023-05-24T04:56:49.090Z,10.70
2023-05-24T04:59:15.288Z,10.70
2023-05-24T05:01:41.606Z,10.70
2023-05-24T05:04:08.071Z,10.80
2023-05-24T05:06:38.448Z,10.90
2023-05-24T05:09:08.678Z,10.90
2023-05-24T05:11:35.151Z,11.00
2023-05-24T05:14:01.726Z,11.10
2023-05-24T05:16:28.594Z,11.20
2023-05-24T05:18:55.479Z,11.00
2023-05-24T05:21:21.730Z,10.90
2023-05-24T05:23:48.308Z,11.00
2023-05-24T05:26:14.510Z,10.90
2023-05-24T05:28:40.986Z,10.80
2023-05-24T05:31:07.232Z,9.00
2023-05-24T05:33:33.429Z,10.90
2023-05-24T05:36:00.274Z,10.90
2023-05-24T05:38:26.499Z,12.60
2023-05-24T05:40:52.835Z,10.80
2023-05-24T05:43:19.102Z,11.00
2023-05-24T05:45:45.738Z,11.10
2023-05-24T05:48:12.436Z,11.10
2023-05-24T05:50:38.683Z,11.10
2023-05-24T05:53:05.209Z,11.20
2023-05-24T05:55:31.410Z,11.40
2023-05-24T05:57:57.670Z,11.70
2023-05-24T06:00:24.158Z,11.90
2023-05-24T06:02:50.509Z,12.20
2023-05-24T06:05:18.009Z,12.30
2023-05-24T06:07:45.106Z,12.50
2023-05-24T06:10:11.679Z,12.30
2023-05-24T06:12:39.728Z,12.20
2023-05-24T06:15:10.333Z,12.20
2023-05-24T06:17:37.017Z,12.40
2023-05-24T06:20:07.682Z,12.50
2023-05-24T06:22:35.885Z,12.40
2023-05-24T06:25:03.186Z,12.20
2023-05-24T06:27:29.753Z,11.90
2023-05-24T06:29:56.027Z,11.80
2023-05-24T06:32:22.365Z,11.70
2023-05-24T06:34:48.703Z,11.70
2023-05-24T06:37:15.019Z,11.50
2023-05-24T06:39:41.473Z,11.60
2023-05-24T06:42:07.660Z,11.60
2023-05-24T06:44:34.052Z,11.50
2023-05-24T06:47:01.529Z,11.30
2023-05-24T06:49:27.762Z,11.40
2023-05-24T06:51:54.013Z,11.40
2023-05-24T06:54:20.954Z,11.50
2023-05-24T06:56:47.259Z,11.50
2023-05-24T06:59:13.449Z,11.80
2023-05-24T07:01:42.423Z,12.10
2023-05-24T07:04:09.362Z,12.50
2023-05-24T07:06:37.242Z,13.10
2023-05-24T07:09:04.478Z,13.40
2023-05-24T07:11:31.187Z,13.70
2023-05-24T07:13:57.568Z,13.90
2023-05-24T07:16:23.983Z,14.20
2023-05-24T07:18:50.384Z,14.80
2023-05-24T07:21:16.623Z,14.70
2023-05-24T07:23:42.861Z,15.40
2023-05-24T07:26:09.177Z,15.40
2023-05-24T07:28:40.539Z,15.50
2023-05-24T07:31:09.210Z,15.40
2023-05-24T07:33:38.555Z,15.60
2023-05-24T07:36:06.406Z,15.40
2023-05-24T07:38:34.208Z,14.20
2023-05-24T07:41:02.687Z,14.20
2023-05-24T07:43:29.263Z,13.80
2023-05-24T07:45:55.751Z,13.70
2023-05-24T07:48:23.192Z,14.10
2023-05-24T07:50:50.303Z,14.40
2023-05-24T07:53:17.488Z,14.80
2023-05-24T07:55:44.063Z,14.70
2023-05-24T07:58:10.929Z,14.90
2023-05-24T08:00:37.710Z,14.40
2023-05-24T08:03:05.243Z,13.90
2023-05-24T08:05:31.696Z,14.20
2023-05-24T08:07:58.180Z,14.30
2023-05-24T08:10:24.791Z,14.50
2023-05-24T08:12:54.214Z,14.60
2023-05-24T08:15:20.967Z,14.60
2023-05-24T08:17:48.610Z,14.60
2023-05-24T08:20:15.505Z,14.60
2023-05-24T08:22:42.623Z,14.00
2023-05-24T08:25:10.230Z,14.40
2023-05-24T08:27:36.450Z,14.70
2023-05-24T08:30:03.751Z,14.40
2023-05-24T08:32:30.339Z,15.00
2023-05-24T08:35:06.687Z,15.10
2023-05-24T08:37:37.473Z,15.40
2023-05-24T08:40:05.105Z,15.30
2023-05-24T08:42:31.892Z,15.50
2023-05-24T08:45:09.174Z,15.50
2023-05-24T08:47:40.453Z,15.80
2023-05-24T08:50:07.864Z,15.60
2023-05-24T08:52:34.741Z,15.30
2023-05-24T08:55:03.217Z,15.40
2023-05-24T08:57:30.184Z,16.20
2023-05-24T08:59:56.820Z,16.60
2023-05-24T09:02:23.178Z,16.80
2023-05-24T09:04:50.536Z,16.20
2023-05-24T09:07:17.952Z,16.20
2023-05-24T09:09:46.997Z,16.20
2023-05-24T09:12:28.343Z,16.30
2023-05-24T09:15:02.604Z,16.30
2023-05-24T09:17:32.711Z,16.80
2023-05-24T09:20:00.346Z,17.50
2023-05-24T09:22:27.668Z,17.10
2023-05-24T09:25:00.455Z,17.10
2023-05-24T09:27:27.551Z,17.70
2023-05-24T09:29:54.578Z,17.10
2023-05-24T09:32:23.485Z,17.60
2023-05-24T09:34:51.989Z,17.50
2023-05-24T09:37:22.722Z,17.30
2023-05-24T09:39:51.350Z,17.50
2023-05-24T09:42:20.463Z,18.00
2023-05-24T09:44:47.708Z,18.30
2023-05-24T09:47:15.460Z,18.20
2023-05-24T09:49:42.833Z,19.40
2023-05-24T09:52:12.842Z,18.10
2023-05-24T09:54:40.785Z,17.30
2023-05-24T09:57:07.326Z,17.10
2023-05-24T09:59:34.459Z,17.80
2023-05-24T10:02:10.916Z,18.10
2023-05-24T10:04:40.512Z,17.90
2023-05-24T10:07:07.717Z,18.40
2023-05-24T10:09:34.833Z,18.30
2023-05-24T10:12:08.533Z,19.10
2023-05-24T10:14:37.447Z,19.20
2023-05-24T10:17:05.068Z,18.90
2023-05-24T10:19:35.153Z,18.20
2023-05-24T10:22:03.693Z,18.20
2023-05-24T10:24:40.514Z,17.90
2023-05-24T10:27:14.023Z,16.30
2023-05-24T10:31:15.015Z,16.00
2023-05-24T10:33:42.832Z,15.30
2023-05-24T10:36:10.141Z,15.40
2023-05-24T10:38:39.948Z,15.70
2023-05-24T10:41:09.554Z,15.80
2023-05-24T10:43:36.237Z,15.80
2023-05-24T10:46:04.002Z,15.70
2023-05-24T10:48:37.484Z,16.50
2023-05-24T10:51:36.801Z,16.60
2023-05-24T10:54:13.528Z,16.00
2023-05-24T10:56:47.414Z,16.20
2023-05-24T10:59:23.779Z,16.50
2023-05-24T11:01:57.430Z,16.70
2023-05-24T11:04:23.660Z,15.50
2023-05-24T11:07:23.163Z,15.80
2023-05-24T11:09:56.276Z,16.20
2023-05-24T11:12:22.866Z,16.50
2023-05-24T11:14:52.854Z,14.40
2023-05-24T11:17:20.936Z,16.10
2023-05-24T11:19:54.319Z,16.70
2023-05-24T11:22:21.882Z,17.10
2023-05-24T11:24:48.129Z,17.00
2023-05-24T11:27:17.439Z,17.30
2023-05-24T11:29:45.705Z,17.40
2023-05-24T11:32:19.461Z,17.70
2023-05-24T11:34:48.913Z,17.60
2023-05-24T11:37:17.658Z,17.30
2023-05-24T11:39:48.152Z,16.90
2023-05-24T11:42:14.666Z,16.60
2023-05-24T11:44:40.944Z,16.70
2023-05-24T11:47:07.660Z,16.40
2023-05-24T11:49:34.422Z,16.80
2023-05-24T11:52:01.029Z,17.30
2023-05-24T11:54:27.579Z,17.20
2023-05-24T11:56:54.264Z,16.90
2023-05-24T11:59:27.450Z,16.80
2023-05-24T12:02:03.768Z,16.70
2023-05-24T12:04:30.605Z,17.00
2023-05-24T12:06:56.956Z,16.80
2023-05-24T12:09:23.312Z,17.70
2023-05-24T12:11:50.074Z,17.90
2023-05-24T12:14:23.129Z,17.90
2023-05-24T12:16:49.461Z,18.20
2023-05-24T12:19:31.513Z,18.20
2023-05-24T12:21:58.830Z,18.40
2023-05-24T12:24:25.480Z,18.70
2023-05-24T12:26:51.759Z,17.10
2023-05-24T12:29:19.023Z,17.40
2023-05-24T12:31:47.775Z,17.50
2023-05-24T12:34:15.866Z,18.10
2023-05-24T12:36:42.590Z,18.10
2023-05-24T12:39:32.065Z,17.70
2023-05-24T12:41:58.877Z,17.70
2023-05-24T12:44:29.101Z,17.50
2023-05-24T12:46:56.155Z,17.70
2023-05-24T12:49:23.405Z,18.00
2023-05-24T12:51:49.875Z,17.90
2023-05-24T12:54:18.666Z,18.20
2023-05-24T12:56:45.134Z,18.40
2023-05-24T12:59:11.681Z,17.70
2023-05-24T13:01:38.022Z,17.70
2023-05-24T13:04:04.397Z,18.10
2023-05-24T13:06:30.659Z,18.20
2023-05-24T13:08:56.925Z,18.10
2023-05-24T13:11:24.525Z,18.10
2023-05-24T13:13:51.157Z,18.10
2023-05-24T13:16:17.559Z,17.70
2023-05-24T13:18:46.056Z,17.60
2023-05-24T13:21:12.783Z,16.70
2023-05-24T13:23:39.745Z,16.50
2023-05-24T13:26:08.633Z,17.10
2023-05-24T13:28:35.254Z,16.90
2023-05-24T13:31:01.579Z,17.80
2023-05-24T13:33:27.812Z,17.90
2023-05-24T13:35:54.512Z,18.00
2023-05-24T13:38:21.214Z,18.00
2023-05-24T13:40:48.037Z,17.60
2023-05-24T13:43:14.527Z,17.40
2023-05-24T13:45:40.858Z,17.00
2023-05-24T13:48:07.148Z,17.30
2023-05-24T13:50:33.917Z,17.40
2023-05-24T13:53:01.572Z,17.00
2023-05-24T13:55:31.636Z,16.40
2023-05-24T13:57:57.891Z,16.60
2023-05-24T14:00:24.181Z,16.80
2023-05-24T14:02:53.673Z,16.20
2023-05-24T14:07:50.574Z,16.30
2023-05-24T14:10:18.655Z,16.60
2023-05-24T14:12:56.137Z,16.60
2023-05-24T14:15:30.457Z,16.50
2023-05-24T14:17:57.386Z,16.80
2023-05-24T14:20:23.742Z,16.00
2023-05-24T14:22:50.178Z,16.00
2023-05-24T14:25:16.532Z,16.30
2023-05-24T14:27:43.478Z,16.20
2023-05-24T14:30:10.234Z,16.60
2023-05-24T14:32:36.503Z,16.40
2023-05-24T14:35:02.926Z,16.30
2023-05-24T14:37:29.089Z,16.40
2023-05-24T14:39:55.392Z,16.60
2023-05-24T14:42:21.797Z,16.10
2023-05-24T14:44:48.064Z,16.10
2023-05-24T14:47:14.400Z,16.10
2023-05-24T14:49:40.846Z,16.30
2023-05-24T14:52:07.666Z,15.60
2023-05-24T14:54:33.941Z,15.90
2023-05-24T14:57:00.373Z,16.00
2023-05-24T14:59:26.860Z,16.20
2023-05-24T15:01:53.132Z,16.10
2023-05-24T15:04:19.467Z,17.40
2023-05-24T15:06:45.693Z,16.00
2023-05-24T15:09:12.706Z,16.00
2023-05-24T15:11:39.038Z,15.90
2023-05-24T15:14:05.778Z,15.90
2023-05-24T15:16:32.023Z,15.60
2023-05-24T15:18:58.269Z,15.60
2023-05-24T15:21:24.537Z,15.70
2023-05-24T15:23:50.937Z,16.10
2023-05-24T15:26:17.196Z,17.10
2023-05-24T15:28:43.783Z,17.30
2023-05-24T15:31:10.159Z,17.20
2023-05-24T15:33:36.544Z,16.80
2023-05-24T15:36:03.810Z,16.10
2023-05-24T15:38:30.356Z,15.70
2023-05-24T15:40:56.653Z,15.70
2023-05-24T15:43:23.268Z,15.70
2023-05-24T15:45:49.477Z,15.90
2023-05-24T15:48:15.753Z,16.40
2023-05-24T15:53:11.264Z,16.70
2023-05-24T15:55:38.434Z,16.40
2023-05-24T15:58:04.782Z,16.60
2023-05-24T16:00:31.311Z,16.40
2023-05-24T16:02:57.882Z,16.50
2023-05-24T16:05:24.262Z,16.20
2023-05-24T16:07:50.471Z,16.00
2023-05-24T16:10:17.215Z,16.10
2023-05-24T16:12:43.539Z,15.90
2023-05-24T16:15:11.169Z,15.90
2023-05-24T16:17:37.768Z,16.20
2023-05-24T16:20:04.646Z,16.20
2023-05-24T16:22:32.940Z,16.00
2023-05-24T16:24:59.132Z,16.20
2023-05-24T16:27:25.448Z,15.90
2023-05-24T16:29:51.644Z,16.00
2023-05-24T16:32:17.860Z,16.00
2023-05-24T16:34:56.050Z,15.90
2023-05-24T16:37:23.204Z,15.60
2023-05-24T16:39:49.401Z,15.50
2023-05-24T16:42:15.664Z,15.50
2023-05-24T16:44:41.931Z,15.40
2023-05-24T16:47:08.250Z,15.30
2023-05-24T16:49:34.841Z,15.20
2023-05-24T16:52:02.284Z,15.30
2023-05-24T16:54:29.750Z,15.30
2023-05-24T16:56:56.061Z,15.40
2023-05-24T16:59:22.360Z,15.40
2023-05-24T17:01:50.789Z,15.60
2023-05-24T17:04:17.608Z,15.40
2023-05-24T17:06:43.956Z,15.20
2023-05-24T17:09:10.644Z,15.20
2023-05-24T17:11:36.887Z,15.00
2023-05-24T17:14:03.817Z,15.00
2023-05-24T17:16:30.134Z,14.90
2023-05-24T17:18:56.462Z,15.00
2023-05-24T17:21:27.069Z,14.80
2023-05-24T17:23:53.962Z,14.80
2023-05-24T17:26:21.571Z,14.70
2023-05-24T17:28:47.947Z,14.60
2023-05-24T17:31:16.914Z,14.50
2023-05-24T17:33:43.282Z,14.50
2023-05-24T17:36:09.608Z,14.40
2023-05-24T17:38:38.891Z,14.30
2023-05-24T17:41:08.991Z,14.30
2023-05-24T17:43:36.123Z,14.20
2023-05-24T17:46:03.518Z,14.20
2023-05-24T17:48:31.145Z,14.10
2023-05-24T17:50:58.462Z,14.00
2023-05-24T17:53:31.964Z,14.00
2023-05-24T17:55:58.846Z,13.90
2023-05-24T17:58:25.867Z,13.80
2023-05-24T18:00:52.516Z,13.80
2023-05-24T18:03:19.163Z,13.70
2023-05-24T18:05:45.676Z,13.60
2023-05-24T18:08:12.133Z,13.50
2023-05-24T18:10:38.460Z,13.50
2023-05-24T18:13:06.631Z,13.40
2023-05-24T18:15:32.967Z,13.30
2023-05-24T18:17:59.264Z,13.20
2023-05-24T18:20:25.523Z,13.10
2023-05-24T18:22:51.873Z,13.00
2023-05-24T18:25:18.136Z,13.00
2023-05-24T18:27:44.477Z,12.90
2023-05-24T18:30:11.746Z,12.80
2023-05-24T18:32:41.994Z,12.80
2023-05-24T18:35:13.529Z,12.60
2023-05-24T18:37:39.864Z,12.50
2023-05-24T18:40:07.443Z,12.40
2023-05-24T18:42:33.769Z,12.30
2023-05-24T18:45:01.106Z,12.20
2023-05-24T18:47:27.437Z,12.00
2023-05-24T18:49:53.678Z,11.90
2023-05-24T18:52:22.798Z,11.80
2023-05-24T18:54:49.094Z,11.70
2023-05-24T18:57:15.852Z,11.50
2023-05-24T18:59:42.258Z,11.40
2023-05-24T19:02:08.538Z,12.00
2023-05-24T19:04:34.847Z,11.10
2023-05-24T19:07:01.077Z,11.00
2023-05-24T19:09:27.560Z,10.90
2023-05-24T19:11:58.357Z,10.80
2023-05-24T19:14:25.760Z,10.70
2023-05-24T19:16:52.068Z,10.60
2023-05-24T19:19:18.726Z,10.50
2023-05-24T19:21:50.935Z,10.40
2023-05-24T19:24:17.490Z,10.20
2023-05-24T19:26:43.705Z,10.20
2023-05-24T19:29:09.925Z,10.10
2023-05-24T19:31:36.196Z,10.00
2023-05-24T19:34:02.541Z,9.90
2023-05-24T19:36:30.063Z,9.90
2023-05-24T19:38:56.296Z,9.90
2023-05-24T19:41:22.648Z,9.80
2023-05-24T19:43:49.032Z,9.70
2023-05-24T19:46:15.228Z,9.70
2023-05-24T19:48:41.981Z,9.70
2023-05-24T19:51:08.977Z,9.50
2023-05-24T19:53:35.340Z,9.50
2023-05-24T19:56:01.865Z,9.50
2023-05-24T19:58:29.666Z,9.50
2023-05-24T20:00:56.550Z,9.40
2023-05-24T20:03:23.948Z,9.30
2023-05-24T20:05:50.722Z,9.30
2023-05-24T20:08:20.085Z,9.20
2023-05-24T20:10:49.962Z,9.20
2023-05-24T20:13:16.628Z,9.10
2023-05-24T20:15:43.053Z,9.00
2023-05-24T20:18:09.498Z,9.00
2023-05-24T20:20:36.753Z,9.00
2023-05-24T20:23:03.082Z,8.90
2023-05-24T20:25:29.617Z,8.90
2023-05-24T20:27:56.238Z,8.90
2023-05-24T20:30:22.511Z,8.90
2023-05-24T20:32:49.441Z,8.90
2023-05-24T20:35:16.213Z,8.90
2023-05-24T20:37:42.729Z,8.80
2023-05-24T20:40:10.141Z,8.80
2023-05-24T20:42:36.742Z,8.80
2023-05-24T20:45:04.023Z,8.80
2023-05-24T20:47:30.595Z,8.70
2023-05-24T20:49:57.092Z,8.70
2023-05-24T20:52:23.431Z,8.60
2023-05-24T20:54:50.568Z,8.60
2023-05-24T20:57:17.219Z,8.60
2023-05-24T20:59:43.442Z,8.50
2023-05-24T21:02:10.092Z,8.50
2023-05-24T21:04:36.504Z,8.40
2023-05-24T21:07:02.868Z,9.60
2023-05-24T21:09:29.106Z,8.30
2023-05-24T21:11:55.657Z,8.20
2023-05-24T21:14:21.979Z,8.20
2023-05-24T21:16:48.360Z,8.20
2023-05-24T21:19:14.657Z,8.10
2023-05-24T21:21:40.951Z,8.10
2023-05-24T21:24:07.321Z,8.10
2023-05-24T21:26:33.685Z,8.10
2023-05-24T21:29:00.049Z,8.00
2023-05-24T21:31:29.080Z,7.90
2023-05-24T21:33:56.145Z,7.90
2023-05-24T21:36:23.629Z,7.80
2023-05-24T21:38:50.428Z,7.80
2023-05-24T21:41:16.634Z,7.80
2023-05-24T21:43:42.882Z,7.80
2023-05-24T21:46:09.085Z,7.80
2023-05-24T21:48:35.279Z,7.70
2023-05-24T21:51:01.527Z,7.70
2023-05-24T21:53:27.764Z,7.70
2023-05-24T21:55:53.981Z,7.80
2023-05-24T21:58:20.241Z,8.00
2023-05-24T22:00:46.498Z,8.10
2023-05-24T22:03:12.782Z,8.20
2023-05-24T22:05:39.002Z,8.30
2023-05-24T22:08:05.194Z,8.30
2023-05-24T22:10:31.411Z,8.30
2023-05-24T22:12:57.654Z,8.30
2023-05-24T22:15:23.862Z,8.30
2023-05-24T22:17:50.088Z,8.40
2023-05-24T22:20:16.772Z,8.40
2023-05-24T22:22:48.020Z,8.50
2023-05-24T22:25:20.016Z,8.50
2023-05-24T22:27:48.067Z,8.60
2023-05-24T22:30:14.811Z,8.60
2023-05-24T22:32:41.754Z,8.70
2023-05-24T22:35:08.625Z,8.70
2023-05-24T22:37:37.928Z,8.80
2023-05-24T22:40:06.871Z,9.00
2023-05-24T22:42:33.070Z,9.10
2023-05-24T22:44:59.261Z,9.10
2023-05-24T22:47:26.063Z,9.10
2023-05-24T22:49:55.132Z,9.10
2023-05-24T22:52:21.358Z,9.10
2023-05-24T22:54:47.524Z,9.00
2023-05-24T22:57:15.358Z,8.90
2023-05-24T22:59:42.032Z,8.80
2023-05-24T23:02:08.221Z,8.70
2023-05-24T23:04:34.799Z,8.60
2023-05-24T23:07:01.005Z,8.60
2023-05-24T23:09:33.775Z,8.60
2023-05-24T23:12:01.529Z,8.80
2023-05-24T23:14:30.002Z,8.90
2023-05-24T23:17:01.859Z,8.90
2023-05-24T23:19:29.637Z,8.90
2023-05-24T23:21:55.833Z,9.00
2023-05-24T23:24:22.035Z,9.00
2023-05-24T23:26:48.221Z,9.00
2023-05-24T23:29:14.459Z,9.00
2023-05-24T23:31:41.124Z,9.00
2023-05-24T23:34:07.674Z,8.90
2023-05-24T23:36:33.918Z,8.90
2023-05-24T23:39:00.593Z,8.80
2023-05-24T23:41:27.121Z,8.80
2023-05-24T23:43:53.314Z,8.80
2023-05-24T23:46:19.955Z,8.70
2023-05-24T23:48:46.214Z,8.80
2023-05-24T23:51:12.477Z,8.70
2023-05-24T23:53:39.047Z,8.70
2023-05-24T23:56:05.341Z,8.70
2023-05-24T23:58:32.936Z,8.60
